createdAt,value
2018-06-20T00:00:10.753Z,99646.05
2018-06-20T00:00:41.929Z,99649.04
2018-06-20T00:01:13.097Z,99643.09
2018-06-20T00:01:44.291Z,99646.69
2018-06-20T00:02:15.470Z,99647.86
2018-06-20T00:02:46.692Z,99648.95
2018-06-20T00:03:17.893Z,99645.93
2018-06-20T00:03:49.118Z,99644.83
2018-06-20T00:04:20.357Z,99653.16
2018-06-20T00:04:51.535Z,99644.45
2018-06-20T00:05:22.767Z,99649.75
2018-06-20T00:05:53.997Z,99649.30
2018-06-20T00:06:25.191Z,99645.05
2018-06-20T00:06:56.424Z,99645.99
2018-06-20T00:07:27.715Z,99647.31
2018-06-20T00:07:58.948Z,99650.42
2018-06-20T00:08:30.126Z,99648.64
2018-06-20T00:09:01.354Z,99649.02
2018-06-20T00:09:32.551Z,99647.47
2018-06-20T00:10:03.776Z,99644.94
2018-06-20T00:10:35.020Z,99649.56
2018-06-20T00:11:06.207Z,99646.91
2018-06-20T00:11:37.384Z,99648.31
2018-06-20T00:12:08.567Z,99648.80
2018-06-20T00:12:39.744Z,99647.20
2018-06-20T00:13:10.968Z,99645.61
2018-06-20T00:13:42.205Z,99650.64
2018-06-20T00:14:13.443Z,99644.42
2018-06-20T00:14:44.641Z,99648.13
2018-06-20T00:15:15.905Z,99646.05
2018-06-20T00:15:47.092Z,99639.98
2018-06-20T00:16:18.270Z,99644.45
2018-06-20T00:16:49.497Z,99642.37
2018-06-20T00:17:20.730Z,99649.59
2018-06-20T00:17:51.915Z,99641.94
2018-06-20T00:18:23.148Z,99642.50
2018-06-20T00:18:54.332Z,99640.34
2018-06-20T00:19:25.508Z,99644.31
2018-06-20T00:19:56.740Z,99642.72
2018-06-20T00:20:27.964Z,99645.55
2018-06-20T00:20:59.144Z,99640.25
2018-06-20T00:21:30.368Z,99646.14
2018-06-20T00:22:01.559Z,99644.33
2018-06-20T00:22:32.793Z,99645.88
2018-06-20T00:23:03.980Z,99641.36
2018-06-20T00:23:35.207Z,99640.38
2018-06-20T00:24:06.385Z,99644.95
2018-06-20T00:24:37.551Z,99644.00
2018-06-20T00:25:08.785Z,99639.05
2018-06-20T00:25:40.011Z,99641.52
2018-06-20T00:26:11.254Z,99635.35
2018-06-20T00:26:42.432Z,99634.03
2018-06-20T00:27:13.613Z,99634.03
2018-06-20T00:27:44.790Z,99636.22
2018-06-20T00:28:16.078Z,99635.73
2018-06-20T00:28:47.268Z,99634.68
2018-06-20T00:29:18.451Z,99630.81
2018-06-20T00:29:49.691Z,99638.77
2018-06-20T00:30:20.880Z,99634.41
2018-06-20T00:30:52.054Z,99636.11
2018-06-20T00:31:23.285Z,99637.82
2018-06-20T00:31:54.479Z,99639.70
2018-06-20T00:32:25.652Z,99637.16
2018-06-20T00:32:56.833Z,99636.13
2018-06-20T00:33:28.054Z,99636.45
2018-06-20T00:33:59.237Z,99639.66
2018-06-20T00:34:30.425Z,99636.25
2018-06-20T00:35:01.615Z,99635.42
2018-06-20T00:35:32.801Z,99632.77
2018-06-20T00:36:04.036Z,99639.39
2018-06-20T00:36:35.285Z,99639.02
2018-06-20T00:37:06.474Z,99642.60
2018-06-20T00:37:37.648Z,99636.09
2018-06-20T00:38:08.825Z,99638.25
2018-06-20T00:38:40.032Z,99633.93
2018-06-20T00:39:11.637Z,99636.20
2018-06-20T00:39:42.825Z,99634.48
2018-06-20T00:40:14.006Z,99633.55
2018-06-20T00:40:45.218Z,99633.06
2018-06-20T00:41:16.396Z,99630.80
2018-06-20T00:41:47.621Z,99643.09
2018-06-20T00:42:18.857Z,99633.93
2018-06-20T00:42:50.043Z,99642.81
2018-06-20T00:43:21.220Z,99633.93
2018-06-20T00:43:52.449Z,99639.02
2018-06-20T00:44:23.637Z,99638.45
2018-06-20T00:44:54.864Z,99640.05
2018-06-20T00:45:26.044Z,99635.41
2018-06-20T00:45:57.220Z,99639.16
2018-06-20T00:46:28.480Z,99640.87
2018-06-20T00:46:59.740Z,99635.00
2018-06-20T00:47:30.977Z,99637.06
2018-06-20T00:48:02.154Z,99641.14
2018-06-20T00:48:33.346Z,99639.25
2018-06-20T00:49:04.527Z,99639.14
2018-06-20T00:49:35.735Z,99644.23
2018-06-20T00:50:06.921Z,99639.69
2018-06-20T00:50:38.169Z,99641.77
2018-06-20T00:51:09.352Z,99640.25
2018-06-20T00:51:40.528Z,99640.47
2018-06-20T00:52:11.704Z,99640.65
2018-06-20T00:52:42.880Z,99637.84
2018-06-20T00:53:14.072Z,99637.29
2018-06-20T00:53:45.244Z,99640.98
2018-06-20T00:54:16.490Z,99636.25
2018-06-20T00:54:47.672Z,99635.52
2018-06-20T00:55:18.893Z,99637.31
2018-06-20T00:55:50.076Z,99639.23
2018-06-20T00:56:21.256Z,99643.76
2018-06-20T00:56:52.491Z,99642.22
2018-06-20T00:57:23.725Z,99643.55
2018-06-20T00:57:54.909Z,99644.88
2018-06-20T00:58:26.087Z,99644.52
2018-06-20T00:58:57.267Z,99642.22
2018-06-20T00:59:28.443Z,99645.25
2018-06-20T00:59:59.635Z,99640.55
2018-06-20T01:00:30.845Z,99640.45
2018-06-20T01:01:02.027Z,99638.25
2018-06-20T01:01:33.265Z,99634.87
2018-06-20T01:02:04.452Z,99638.25
2018-06-20T01:02:35.644Z,99641.38
2018-06-20T01:03:06.873Z,99638.07
2018-06-20T01:03:38.056Z,99638.45
2018-06-20T01:04:09.231Z,99638.72
2018-06-20T01:04:40.456Z,99637.85
2018-06-20T01:05:11.630Z,99645.23
2018-06-20T01:05:42.874Z,99639.45
2018-06-20T01:06:14.074Z,99641.64
2018-06-20T01:06:45.248Z,99646.83
2018-06-20T01:07:16.415Z,99642.67
2018-06-20T01:07:47.608Z,99642.36
2018-06-20T01:08:18.784Z,99644.06
2018-06-20T01:08:50.045Z,99641.41
2018-06-20T01:09:21.228Z,99644.82
2018-06-20T01:09:52.413Z,99643.87
2018-06-20T01:10:23.599Z,99646.88
2018-06-20T01:10:54.791Z,99643.01
2018-06-20T01:11:25.968Z,99643.87
2018-06-20T01:11:57.247Z,99637.44
2018-06-20T01:12:28.357Z,99638.00
2018-06-20T01:12:59.589Z,99643.52
2018-06-20T01:13:30.809Z,99641.36
2018-06-20T01:14:02.024Z,99642.86
2018-06-20T01:14:33.202Z,99639.56
2018-06-20T01:15:04.391Z,99640.98
2018-06-20T01:15:35.572Z,99641.66
2018-06-20T01:16:06.804Z,99638.25
2018-06-20T01:16:37.996Z,99639.89
2018-06-20T01:17:09.173Z,99642.27
2018-06-20T01:17:40.349Z,99638.02
2018-06-20T01:18:11.523Z,99644.16
2018-06-20T01:18:42.716Z,99641.61
2018-06-20T01:19:13.920Z,99640.28
2018-06-20T01:19:45.085Z,99645.96
2018-06-20T01:20:16.269Z,99638.09
2018-06-20T01:20:47.450Z,99644.36
2018-06-20T01:21:18.635Z,99647.02
2018-06-20T01:21:49.812Z,99646.63
2018-06-20T01:22:21.040Z,99648.34
2018-06-20T01:22:52.220Z,99648.09
2018-06-20T01:23:23.445Z,99645.87
2018-06-20T01:23:54.628Z,99647.57
2018-06-20T01:24:25.884Z,99646.63
2018-06-20T01:24:57.097Z,99645.69
2018-06-20T01:25:28.280Z,99642.66
2018-06-20T01:25:59.454Z,99649.34
2018-06-20T01:26:30.629Z,99647.82
2018-06-20T01:27:01.870Z,99643.02
2018-06-20T01:27:33.101Z,99646.23
2018-06-20T01:28:04.337Z,99643.97
2018-06-20T01:28:35.576Z,99647.66
2018-06-20T01:29:06.818Z,99646.44
2018-06-20T01:29:38.027Z,99642.19
2018-06-20T01:30:09.249Z,99641.53
2018-06-20T01:30:40.476Z,99644.73
2018-06-20T01:31:11.665Z,99644.00
2018-06-20T01:31:42.845Z,99643.14
2018-06-20T01:32:14.026Z,99647.59
2018-06-20T01:32:45.257Z,99648.91
2018-06-20T01:33:16.441Z,99641.91
2018-06-20T01:33:47.620Z,99644.95
2018-06-20T01:34:18.861Z,99645.50
2018-06-20T01:34:50.094Z,99650.80
2018-06-20T01:35:21.269Z,99648.16
2018-06-20T01:35:52.445Z,99646.06
2018-06-20T01:36:23.681Z,99645.61
2018-06-20T01:36:54.861Z,99653.06
2018-06-20T01:37:26.037Z,99648.36
2018-06-20T01:37:57.247Z,99647.77
2018-06-20T01:38:28.469Z,99650.23
2018-06-20T01:38:59.652Z,99646.55
2018-06-20T01:39:30.941Z,99648.70
2018-06-20T01:40:02.124Z,99644.28
2018-06-20T01:40:33.300Z,99644.84
2018-06-20T01:41:04.557Z,99642.68
2018-06-20T01:41:35.749Z,99648.43
2018-06-20T01:42:06.923Z,99642.68
2018-06-20T01:42:38.096Z,99652.12
2018-06-20T01:43:09.318Z,99647.20
2018-06-20T01:43:40.492Z,99648.53
2018-06-20T01:44:11.722Z,99421.94
2018-06-20T01:44:42.942Z,99646.06
2018-06-20T01:45:14.146Z,99645.78
2018-06-20T01:45:45.328Z,99643.45
2018-06-20T01:46:16.504Z,99644.39
2018-06-20T01:46:47.683Z,99645.70
2018-06-20T01:47:18.868Z,99647.59
2018-06-20T01:47:50.098Z,99644.66
2018-06-20T01:48:21.292Z,99650.52
2018-06-20T01:48:52.506Z,99654.58
2018-06-20T01:49:23.673Z,99654.69
2018-06-20T01:49:54.853Z,99654.30
2018-06-20T01:50:26.077Z,99654.41
2018-06-20T01:50:57.312Z,99652.21
2018-06-20T01:51:28.532Z,99658.37
2018-06-20T01:51:59.704Z,99653.84
2018-06-20T01:52:30.928Z,99653.75
2018-06-20T01:53:02.169Z,99654.58
2018-06-20T01:53:33.404Z,99652.42
2018-06-20T01:54:04.641Z,99655.52
2018-06-20T01:54:35.875Z,99657.61
2018-06-20T01:55:07.095Z,99648.35
2018-06-20T01:55:38.277Z,99657.13
2018-06-20T01:56:09.512Z,99653.09
2018-06-20T01:56:40.692Z,99652.50
2018-06-20T01:57:11.878Z,99651.00
2018-06-20T01:57:43.049Z,99654.80
2018-06-20T01:58:14.221Z,99654.20
2018-06-20T01:58:45.403Z,99653.16
2018-06-20T01:59:16.576Z,99649.02
2018-06-20T01:59:47.760Z,99649.75
2018-06-20T02:00:18.970Z,99647.11
2018-06-20T02:00:50.149Z,99655.05
2018-06-20T02:01:21.377Z,99653.44
2018-06-20T02:01:52.572Z,99650.52
2018-06-20T02:02:23.792Z,99652.50
2018-06-20T02:02:55.029Z,99493.83
2018-06-20T02:03:26.211Z,99654.30
2018-06-20T02:03:57.384Z,99651.77
2018-06-20T02:04:28.613Z,99656.67
2018-06-20T02:04:59.851Z,99657.71
2018-06-20T02:05:31.077Z,99657.81
2018-06-20T02:06:02.264Z,99654.30
2018-06-20T02:06:33.490Z,99661.39
2018-06-20T02:07:04.676Z,99657.91
2018-06-20T02:07:35.931Z,99653.45
2018-06-20T02:08:07.116Z,99659.30
2018-06-20T02:08:38.302Z,99662.89
2018-06-20T02:09:09.481Z,99663.27
2018-06-20T02:09:40.648Z,99661.39
2018-06-20T02:10:11.877Z,99661.30
2018-06-20T02:10:43.057Z,99664.42
2018-06-20T02:11:14.280Z,99657.81
2018-06-20T02:11:45.549Z,99662.52
2018-06-20T02:12:16.781Z,99653.64
2018-06-20T02:12:47.964Z,99657.44
2018-06-20T02:13:19.239Z,99663.56
2018-06-20T02:13:50.420Z,99653.84
2018-06-20T02:14:21.654Z,99658.17
2018-06-20T02:14:52.840Z,99660.81
2018-06-20T02:15:24.075Z,99662.62
2018-06-20T02:15:55.296Z,99666.11
2018-06-20T02:16:26.512Z,99659.49
2018-06-20T02:16:57.752Z,99665.45
2018-06-20T02:17:28.982Z,99657.89
2018-06-20T02:18:00.172Z,99663.08
2018-06-20T02:18:31.363Z,99657.89
2018-06-20T02:19:02.541Z,99660.36
2018-06-20T02:19:33.726Z,99659.14
2018-06-20T02:20:04.903Z,99657.05
2018-06-20T02:20:36.139Z,99653.36
2018-06-20T02:21:07.400Z,99661.39
2018-06-20T02:21:38.593Z,99662.53
2018-06-20T02:22:09.820Z,99660.27
2018-06-20T02:22:41.013Z,99662.42
2018-06-20T02:23:12.187Z,99656.08
2018-06-20T02:23:43.355Z,99659.87
2018-06-20T02:24:14.578Z,99661.29
2018-06-20T02:24:45.766Z,99657.77
2018-06-20T02:25:16.976Z,99662.33
2018-06-20T02:25:48.147Z,99660.79
2018-06-20T02:26:19.381Z,99662.11
2018-06-20T02:26:50.574Z,99658.34
2018-06-20T02:27:21.738Z,99656.22
2018-06-20T02:27:52.960Z,99662.16
2018-06-20T02:28:24.140Z,99655.65
2018-06-20T02:28:55.317Z,99657.46
2018-06-20T02:29:26.541Z,99661.88
2018-06-20T02:29:57.729Z,99656.04
2018-06-20T02:30:28.937Z,99652.63
2018-06-20T02:31:00.163Z,99661.33
2018-06-20T02:31:31.384Z,99664.36
2018-06-20T02:32:02.553Z,99662.00
2018-06-20T02:32:33.769Z,99662.31
2018-06-20T02:33:05.001Z,99661.38
2018-06-20T02:33:36.188Z,99659.47
2018-06-20T02:34:07.373Z,99662.88
2018-06-20T02:34:38.598Z,99660.14
2018-06-20T02:35:09.812Z,99663.66
2018-06-20T02:35:40.985Z,99663.94
2018-06-20T02:36:12.217Z,99667.42
2018-06-20T02:36:43.461Z,99669.67
2018-06-20T02:37:14.657Z,99668.35
2018-06-20T02:37:45.894Z,99667.13
2018-06-20T02:38:17.080Z,99666.30
2018-06-20T02:38:48.361Z,99668.45
2018-06-20T02:39:19.593Z,99675.17
2018-06-20T02:39:50.830Z,99665.91
2018-06-20T02:40:22.051Z,99673.36
2018-06-20T02:40:53.265Z,99671.58
2018-06-20T02:41:24.497Z,99671.58
2018-06-20T02:41:55.684Z,99671.48
2018-06-20T02:42:26.905Z,99669.67
2018-06-20T02:42:58.081Z,99672.32
2018-06-20T02:43:29.257Z,99677.71
2018-06-20T02:44:01.198Z,99673.84
2018-06-20T02:44:32.434Z,99680.84
2018-06-20T02:45:03.629Z,99677.99
2018-06-20T02:45:34.797Z,99677.06
2018-06-20T02:46:06.335Z,99677.83
2018-06-20T02:46:37.557Z,99677.23
2018-06-20T02:47:08.755Z,99677.17
2018-06-20T02:47:39.928Z,99677.08
2018-06-20T02:48:11.153Z,99679.16
2018-06-20T02:48:42.349Z,99677.09
2018-06-20T02:49:13.573Z,99678.97
2018-06-20T02:49:44.754Z,99676.89
2018-06-20T02:50:15.990Z,99680.10
2018-06-20T02:50:47.222Z,99676.70
2018-06-20T02:51:18.413Z,99679.17
2018-06-20T02:51:49.590Z,99679.23
2018-06-20T02:52:20.771Z,99677.84
2018-06-20T02:52:52.105Z,99680.11
2018-06-20T02:53:23.227Z,99684.63
2018-06-20T02:53:54.405Z,99687.28
2018-06-20T02:54:25.669Z,99682.19
2018-06-20T02:54:56.853Z,99682.27
2018-06-20T02:55:28.045Z,99684.62
2018-06-20T02:55:59.225Z,99684.73
2018-06-20T02:56:30.452Z,99683.50
2018-06-20T02:57:01.637Z,99680.09
2018-06-20T02:57:32.869Z,99679.98
2018-06-20T02:58:04.093Z,99687.09
2018-06-20T02:58:35.272Z,99681.41
2018-06-20T02:59:06.440Z,99688.24
2018-06-20T02:59:37.665Z,99687.58
2018-06-20T03:00:08.909Z,99685.77
2018-06-20T03:00:40.142Z,99685.00
2018-06-20T03:01:11.376Z,99692.00
2018-06-20T03:01:42.580Z,99685.28
2018-06-20T03:02:13.761Z,99689.91
2018-06-20T03:02:44.944Z,99692.21
2018-06-20T03:03:16.160Z,99691.06
2018-06-20T03:03:47.388Z,99688.60
2018-06-20T03:04:18.572Z,99693.52
2018-06-20T03:04:49.751Z,99689.55
2018-06-20T03:05:20.945Z,99686.04
2018-06-20T03:05:52.168Z,99692.55
2018-06-20T03:06:23.344Z,99688.20
2018-06-20T03:06:54.516Z,99696.24
2018-06-20T03:07:25.700Z,99693.63
2018-06-20T03:07:56.881Z,99695.88
2018-06-20T03:08:28.060Z,99692.92
2018-06-20T03:08:59.348Z,99695.28
2018-06-20T03:09:30.536Z,99695.84
2018-06-20T03:10:01.705Z,99688.05
2018-06-20T03:10:32.945Z,99696.77
2018-06-20T03:11:04.177Z,99695.93
2018-06-20T03:11:35.357Z,99694.48
2018-06-20T03:12:06.597Z,99693.60
2018-06-20T03:12:37.792Z,99700.48
2018-06-20T03:13:08.973Z,99697.89
2018-06-20T03:13:40.169Z,99700.46
2018-06-20T03:14:11.389Z,99698.64
2018-06-20T03:14:42.574Z,99696.09
2018-06-20T03:15:13.757Z,99699.73
2018-06-20T03:15:44.937Z,99702.38
2018-06-20T03:16:16.154Z,99699.16
2018-06-20T03:16:47.338Z,99700.39
2018-06-20T03:17:18.512Z,99706.13
2018-06-20T03:17:49.684Z,99699.15
2018-06-20T03:18:20.864Z,99705.38
2018-06-20T03:18:52.044Z,99701.73
2018-06-20T03:19:23.253Z,99700.79
2018-06-20T03:19:54.507Z,99700.69
2018-06-20T03:20:25.705Z,99706.33
2018-06-20T03:20:56.937Z,99705.55
2018-06-20T03:21:28.244Z,99704.75
2018-06-20T03:21:59.484Z,99705.51
2018-06-20T03:22:30.657Z,99704.03
2018-06-20T03:23:01.892Z,99702.28
2018-06-20T03:23:33.090Z,99700.73
2018-06-20T03:24:04.268Z,99706.49
2018-06-20T03:24:35.454Z,99709.03
2018-06-20T03:25:06.672Z,99707.86
2018-06-20T03:25:37.898Z,99709.14
2018-06-20T03:26:09.080Z,99702.64
2018-06-20T03:26:40.314Z,99711.08
2018-06-20T03:27:11.511Z,99708.51
2018-06-20T03:27:42.719Z,99711.80
2018-06-20T03:28:13.890Z,99701.95
2018-06-20T03:28:45.072Z,99709.17
2018-06-20T03:29:16.244Z,99714.16
2018-06-20T03:29:47.424Z,99706.91
2018-06-20T03:30:18.644Z,99712.02
2018-06-20T03:30:49.870Z,99714.06
2018-06-20T03:31:21.107Z,99711.58
2018-06-20T03:31:52.303Z,99707.88
2018-06-20T03:32:23.545Z,99714.98
2018-06-20T03:32:54.774Z,99718.27
2018-06-20T03:33:25.954Z,99717.90
2018-06-20T03:33:57.131Z,99715.41
2018-06-20T03:34:28.296Z,99715.30
2018-06-20T03:34:59.475Z,99712.45
2018-06-20T03:35:30.720Z,99713.11
2018-06-20T03:36:01.899Z,99713.66
2018-06-20T03:36:33.077Z,99714.04
2018-06-20T03:37:04.240Z,99720.81
2018-06-20T03:37:35.424Z,99717.70
2018-06-20T03:38:06.628Z,99719.93
2018-06-20T03:38:37.788Z,99720.59
2018-06-20T03:39:08.992Z,99718.67
2018-06-20T03:39:40.152Z,99716.00
2018-06-20T03:40:11.322Z,99717.95
2018-06-20T03:40:42.540Z,99723.52
2018-06-20T03:41:13.721Z,99721.25
2018-06-20T03:41:44.889Z,99709.66
2018-06-20T03:42:16.100Z,99723.47
2018-06-20T03:42:47.280Z,99717.84
2018-06-20T03:43:18.480Z,99721.34
2018-06-20T03:43:49.695Z,99722.55
2018-06-20T03:44:20.872Z,99712.36
2018-06-20T03:44:52.092Z,99718.06
2018-06-20T03:45:23.273Z,99725.71
2018-06-20T03:45:54.495Z,99720.84
2018-06-20T03:46:25.681Z,99726.19
2018-06-20T03:46:56.897Z,99729.06
2018-06-20T03:47:28.133Z,99719.63
2018-06-20T03:47:59.357Z,99727.97
2018-06-20T03:48:30.638Z,99725.41
2018-06-20T03:49:01.827Z,99730.30
2018-06-20T03:49:32.991Z,99730.53
2018-06-20T03:50:04.164Z,99728.33
2018-06-20T03:50:35.346Z,99730.50
2018-06-20T03:51:06.529Z,99734.00
2018-06-20T03:51:37.754Z,99733.50
2018-06-20T03:52:08.932Z,99733.27
2018-06-20T03:52:40.121Z,99733.50
2018-06-20T03:53:11.352Z,99730.96
2018-06-20T03:53:42.566Z,99731.09
2018-06-20T03:54:13.751Z,99736.56
2018-06-20T03:54:44.973Z,99736.71
2018-06-20T03:55:16.160Z,99733.70
2018-06-20T03:55:47.333Z,99737.34
2018-06-20T03:56:18.507Z,99740.91
2018-06-20T03:56:49.796Z,99737.72
2018-06-20T03:57:20.976Z,99737.22
2018-06-20T03:57:52.217Z,99738.56
2018-06-20T03:58:23.489Z,99733.26
2018-06-20T03:58:54.669Z,99739.31
2018-06-20T03:59:25.850Z,99737.04
2018-06-20T03:59:57.025Z,99738.06
2018-06-20T04:00:28.194Z,99740.09
2018-06-20T04:00:59.360Z,99737.05
2018-06-20T04:01:30.583Z,99737.40
2018-06-20T04:02:01.786Z,99738.89
2018-06-20T04:02:33.017Z,99745.50
2018-06-20T04:03:04.205Z,99736.64
2018-06-20T04:03:35.420Z,99741.69
2018-06-20T04:04:06.589Z,99743.67
2018-06-20T04:04:37.756Z,99741.94
2018-06-20T04:05:08.983Z,99740.29
2018-06-20T04:05:40.173Z,99738.61
2018-06-20T04:06:11.348Z,99737.56
2018-06-20T04:06:42.520Z,99737.73
2018-06-20T04:07:13.684Z,99739.59
2018-06-20T04:07:44.866Z,99744.56
2018-06-20T04:08:16.045Z,99739.49
2018-06-20T04:08:47.262Z,99737.43
2018-06-20T04:09:18.436Z,99741.80
2018-06-20T04:09:49.649Z,99741.13
2018-06-20T04:10:20.835Z,99735.53
2018-06-20T04:10:52.004Z,99745.14
2018-06-20T04:11:23.180Z,99745.44
2018-06-20T04:11:54.424Z,99744.88
2018-06-20T04:12:25.641Z,99744.84
2018-06-20T04:12:56.819Z,99743.68
2018-06-20T04:13:28.000Z,99746.88
2018-06-20T04:13:59.173Z,99751.03
2018-06-20T04:14:30.341Z,99751.83
2018-06-20T04:15:01.561Z,99752.86
2018-06-20T04:15:32.741Z,99750.48
2018-06-20T04:16:03.970Z,99749.80
2018-06-20T04:16:35.215Z,99749.84
2018-06-20T04:17:06.415Z,99748.04
2018-06-20T04:17:37.615Z,99749.37
2018-06-20T04:18:08.789Z,99750.30
2018-06-20T04:18:40.018Z,99755.22
2018-06-20T04:19:11.230Z,99752.13
2018-06-20T04:19:42.400Z,99756.56
2018-06-20T04:20:13.565Z,99753.62
2018-06-20T04:20:44.742Z,99749.43
2018-06-20T04:21:15.920Z,99755.16
2018-06-20T04:21:47.093Z,99756.66
2018-06-20T04:22:18.353Z,99754.73
2018-06-20T04:22:49.589Z,99752.09
2018-06-20T04:23:20.768Z,99756.61
2018-06-20T04:23:51.993Z,99755.64
2018-06-20T04:24:23.224Z,99756.10
2018-06-20T04:24:54.412Z,99754.59
2018-06-20T04:25:25.637Z,99755.16
2018-06-20T04:25:56.875Z,99757.26
2018-06-20T04:26:28.060Z,99758.81
2018-06-20T04:26:59.240Z,99757.54
2018-06-20T04:27:30.466Z,99754.36
2018-06-20T04:28:01.747Z,99755.55
2018-06-20T04:28:32.981Z,99753.91
2018-06-20T04:29:04.174Z,99758.72
2018-06-20T04:29:35.341Z,99756.85
2018-06-20T04:30:06.520Z,99761.48
2018-06-20T04:30:37.696Z,99763.00
2018-06-20T04:31:08.874Z,99759.31
2018-06-20T04:31:40.076Z,99766.21
2018-06-20T04:32:11.608Z,99767.39
2018-06-20T04:32:42.825Z,99465.16
2018-06-20T04:33:14.010Z,99767.20
2018-06-20T04:33:45.198Z,99766.38
2018-06-20T04:34:16.385Z,99764.52
2018-06-20T04:34:47.629Z,99766.17
2018-06-20T04:35:18.842Z,99764.52
2018-06-20T04:35:50.024Z,99767.17
2018-06-20T04:36:21.197Z,99767.64
2018-06-20T04:36:52.382Z,99765.45
2018-06-20T04:37:23.568Z,99769.73
2018-06-20T04:37:54.815Z,99769.73
2018-06-20T04:38:26.034Z,99766.28
2018-06-20T04:38:57.230Z,99773.98
2018-06-20T04:39:28.460Z,99766.41
2018-06-20T04:39:59.694Z,99763.91
2018-06-20T04:40:30.933Z,99769.00
2018-06-20T04:41:02.117Z,99766.00
2018-06-20T04:41:33.300Z,99767.69
2018-06-20T04:42:04.530Z,99769.34
2018-06-20T04:42:35.712Z,99775.41
2018-06-20T04:43:06.937Z,99770.36
2018-06-20T04:43:38.161Z,99766.91
2018-06-20T04:44:09.344Z,99763.42
2018-06-20T04:44:40.630Z,99764.63
2018-06-20T04:45:11.773Z,99771.81
2018-06-20T04:45:42.985Z,99771.42
2018-06-20T04:46:14.214Z,99771.07
2018-06-20T04:46:45.452Z,99765.41
2018-06-20T04:47:16.623Z,99767.09
2018-06-20T04:47:47.855Z,99768.41
2018-06-20T04:48:19.047Z,99765.42
2018-06-20T04:48:50.229Z,99769.84
2018-06-20T04:49:21.407Z,99768.43
2018-06-20T04:49:52.588Z,99771.56
2018-06-20T04:50:23.763Z,99768.03
2018-06-20T04:50:54.958Z,99768.78
2018-06-20T04:51:26.144Z,99770.21
2018-06-20T04:51:57.413Z,99773.98
2018-06-20T04:52:28.632Z,99773.98
2018-06-20T04:52:59.833Z,99779.73
2018-06-20T04:53:31.017Z,99773.88
2018-06-20T04:54:02.193Z,99778.58
2018-06-20T04:54:33.412Z,99781.47
2018-06-20T04:55:04.634Z,99776.01
2018-06-20T04:55:35.840Z,99775.31
2018-06-20T04:56:07.086Z,99781.91
2018-06-20T04:56:38.295Z,99781.37
2018-06-20T04:57:09.534Z,99778.47
2018-06-20T04:57:40.756Z,99779.92
2018-06-20T04:58:11.937Z,99785.70
2018-06-20T04:58:43.124Z,99781.46
2018-06-20T04:59:14.345Z,99783.64
2018-06-20T04:59:45.525Z,99786.96
2018-06-20T05:00:16.748Z,99786.08
2018-06-20T05:00:47.932Z,99785.45
2018-06-20T05:01:19.100Z,99780.46
2018-06-20T05:01:50.345Z,99781.48
2018-06-20T05:02:21.541Z,99790.81
2018-06-20T05:02:52.752Z,99788.02
2018-06-20T05:03:23.932Z,99786.73
2018-06-20T05:03:55.105Z,99788.72
2018-06-20T05:04:26.304Z,99786.60
2018-06-20T05:04:57.528Z,99788.36
2018-06-20T05:05:28.700Z,99785.96
2018-06-20T05:05:59.868Z,99791.94
2018-06-20T05:06:31.045Z,99788.14
2018-06-20T05:07:02.228Z,99792.98
2018-06-20T05:07:33.405Z,99791.22
2018-06-20T05:08:04.641Z,99789.28
2018-06-20T05:08:35.873Z,99795.02
2018-06-20T05:09:07.104Z,99795.16
2018-06-20T05:09:38.299Z,99793.96
2018-06-20T05:10:09.505Z,99802.51
2018-06-20T05:10:40.734Z,99802.55
2018-06-20T05:11:11.955Z,99795.72
2018-06-20T05:11:43.125Z,99799.22
2018-06-20T05:12:14.304Z,99800.14
2018-06-20T05:12:45.480Z,99803.18
2018-06-20T05:13:16.713Z,99792.64
2018-06-20T05:13:47.897Z,99797.42
2018-06-20T05:14:19.069Z,99795.95
2018-06-20T05:14:50.313Z,99801.22
2018-06-20T05:15:21.541Z,99797.43
2018-06-20T05:15:52.708Z,99789.03
2018-06-20T05:16:23.884Z,99796.97
2018-06-20T05:16:55.108Z,99799.20
2018-06-20T05:17:26.288Z,99796.66
2018-06-20T05:17:57.465Z,99799.03
2018-06-20T05:18:28.685Z,99800.09
2018-06-20T05:18:59.874Z,99804.30
2018-06-20T05:19:31.097Z,99794.69
2018-06-20T05:20:02.276Z,99795.37
2018-06-20T05:20:33.481Z,99797.73
2018-06-20T05:21:04.735Z,99800.76
2018-06-20T05:21:35.916Z,99802.59
2018-06-20T05:22:07.086Z,99795.02
2018-06-20T05:22:38.269Z,99799.06
2018-06-20T05:23:09.517Z,99801.94
2018-06-20T05:23:40.705Z,99801.07
2018-06-20T05:24:11.926Z,99801.41
2018-06-20T05:24:43.108Z,99807.48
2018-06-20T05:25:14.292Z,99804.15
2018-06-20T05:25:45.477Z,99804.46
2018-06-20T05:26:16.732Z,99809.86
2018-06-20T05:26:47.912Z,99804.25
2018-06-20T05:27:19.168Z,99800.73
2018-06-20T05:27:50.409Z,99803.45
2018-06-20T05:28:21.600Z,99805.81
2018-06-20T05:28:52.779Z,99805.80
2018-06-20T05:29:23.948Z,99804.45
2018-06-20T05:29:55.210Z,99808.85
2018-06-20T05:30:26.451Z,99811.88
2018-06-20T05:30:57.638Z,99813.39
2018-06-20T05:31:28.820Z,99810.87
2018-06-20T05:31:59.997Z,99815.78
2018-06-20T05:32:31.169Z,99809.86
2018-06-20T05:33:02.394Z,99811.88
2018-06-20T05:33:33.572Z,99808.53
2018-06-20T05:34:04.797Z,99814.92
2018-06-20T05:34:36.045Z,99810.00
2018-06-20T05:35:07.245Z,99812.06
2018-06-20T05:35:38.424Z,99813.73
2018-06-20T05:36:09.605Z,99805.14
2018-06-20T05:36:40.783Z,99804.83
2018-06-20T05:37:12.016Z,99807.47
2018-06-20T05:37:43.262Z,99807.12
2018-06-20T05:38:14.647Z,99809.15
2018-06-20T05:38:45.834Z,99811.35
2018-06-20T05:39:17.021Z,99812.16
2018-06-20T05:39:48.209Z,99812.86
2018-06-20T05:40:19.441Z,99809.13
2018-06-20T05:40:50.682Z,99810.31
2018-06-20T05:41:21.888Z,99811.82
2018-06-20T05:41:53.121Z,99808.48
2018-06-20T05:42:24.312Z,99812.20
2018-06-20T05:42:55.489Z,99816.13
2018-06-20T05:43:26.680Z,99810.17
2018-06-20T05:43:57.857Z,99810.73
2018-06-20T05:44:29.040Z,99812.75
2018-06-20T05:45:00.205Z,99816.25
2018-06-20T05:45:31.383Z,99814.54
2018-06-20T05:46:02.617Z,99809.84
2018-06-20T05:46:33.900Z,99810.34
2018-06-20T05:47:05.160Z,99809.15
2018-06-20T05:47:36.365Z,99815.88
2018-06-20T05:48:07.620Z,99810.30
2018-06-20T05:48:38.810Z,99811.48
2018-06-20T05:49:09.977Z,99816.53
2018-06-20T05:49:41.205Z,99810.80
2018-06-20T05:50:12.457Z,99812.46
2018-06-20T05:50:43.708Z,99818.51
2018-06-20T05:51:14.948Z,99818.69
2018-06-20T05:51:46.233Z,99816.33
2018-06-20T05:52:17.430Z,99792.25
2018-06-20T05:52:48.605Z,99813.81
2018-06-20T05:53:19.865Z,99816.50
2018-06-20T05:53:51.133Z,99817.73
2018-06-20T05:54:22.350Z,99818.86
2018-06-20T05:54:53.529Z,99815.34
2018-06-20T05:55:24.700Z,99814.65
2018-06-20T05:55:55.892Z,99821.38
2018-06-20T05:56:27.114Z,99820.84
2018-06-20T05:56:58.337Z,99821.14
2018-06-20T05:57:29.517Z,99823.66
2018-06-20T05:58:00.777Z,99821.66
2018-06-20T05:58:31.997Z,99818.67
2018-06-20T05:59:03.189Z,99823.38
2018-06-20T05:59:34.377Z,99825.70
2018-06-20T06:00:05.556Z,99826.95
2018-06-20T06:00:36.734Z,99822.20
2018-06-20T06:01:07.911Z,99825.90
2018-06-20T06:01:39.148Z,99822.20
2018-06-20T06:02:10.445Z,99827.25
2018-06-20T06:02:41.641Z,99823.95
2018-06-20T06:03:12.837Z,99827.72
2018-06-20T06:03:44.016Z,99826.23
2018-06-20T06:04:15.205Z,99819.59
2018-06-20T06:04:46.390Z,99830.42
2018-06-20T06:05:17.860Z,99823.75
2018-06-20T06:05:49.082Z,99833.54
2018-06-20T06:06:20.271Z,99828.97